sensor_id;sensor_type;location;lat;lon;timestamp;temperature;humidity
20446;DHT22;10382;49.140;9.234;2023-07-31T00:01:56;19.60;99.90
20446;DHT22;10382;49.140;9.234;2023-07-31T00:04:23;19.60;99.90
20446;DHT22;10382;49.140;9.234;2023-07-31T00:06:50;19.70;99.90
20446;DHT22;10382;49.140;9.234;2023-07-31T00:09:17;19.70;99.90
20446;DHT22;10382;49.140;9.234;2023-07-31T00:11:45;19.70;99.90
20446;DHT22;10382;49.140;9.234;2023-07-31T00:14:12;19.70;99.90
20446;DHT22;10382;49.140;9.234;2023-07-31T00:16:39;19.70;99.90
20446;DHT22;10382;49.140;9.234;2023-07-31T00:19:05;19.70;99.90
20446;DHT22;10382;49.140;9.234;2023-07-31T00:21:32;19.60;99.90
20446;DHT22;10382;49.140;9.234;2023-07-31T00:23:59;19.70;99.90
20446;DHT22;10382;49.140;9.234;2023-07-31T00:26:26;19.70;99.90
20446;DHT22;10382;49.140;9.234;2023-07-31T00:28:54;19.70;99.90
20446;DHT22;10382;49.140;9.234;2023-07-31T00:31:21;19.70;99.90
20446;DHT22;10382;49.140;9.234;2023-07-31T00:33:48;19.70;99.90
20446;DHT22;10382;49.140;9.234;2023-07-31T00:36:15;19.70;99.90
20446;DHT22;10382;49.140;9.234;2023-07-31T00:38:43;19.60;99.90
20446;DHT22;10382;49.140;9.234;2023-07-31T00:41:10;19.50;99.90
20446;DHT22;10382;49.140;9.234;2023-07-31T00:43:37;19.50;99.90
20446;DHT22;10382;49.140;9.234;2023-07-31T00:46:05;19.60;99.90
20446;DHT22;10382;49.140;9.234;2023-07-31T00:48:33;19.70;99.90
20446;DHT22;10382;49.140;9.234;2023-07-31T00:51:00;19.70;99.90
20446;DHT22;10382;49.140;9.234;2023-07-31T00:53:28;19.70;99.90
20446;DHT22;10382;49.140;9.234;2023-07-31T00:55:55;19.70;99.90
20446;DHT22;10382;49.140;9.234;2023-07-31T00:58:21;19.70;99.90
20446;DHT22;10382;49.140;9.234;2023-07-31T01:00:49;19.60;99.90
20446;DHT22;10382;49.140;9.234;2023-07-31T01:03:18;19.60;99.90
20446;DHT22;10382;49.140;9.234;2023-07-31T01:05:51;19.50;99.90
20446;DHT22;10382;49.140;9.234;2023-07-31T01:08:26;19.40;99.90
20446;DHT22;10382;49.140;9.234;2023-07-31T01:10:59;19.30;99.90
20446;DHT22;10382;49.140;9.234;2023-07-31T01:13:28;19.30;99.90
20446;DHT22;10382;49.140;9.234;2023-07-31T01:15:55;19.30;99.90
20446;DHT22;10382;49.140;9.234;2023-07-31T01:18:23;19.30;99.90
20446;DHT22;10382;49.140;9.234;2023-07-31T01:21:07;19.30;99.90
20446;DHT22;10382;49.140;9.234;2023-07-31T01:26:39;19.50;99.90
20446;DHT22;10382;49.140;9.234;2023-07-31T01:29:10;19.50;99.90
20446;DHT22;10382;49.140;9.234;2023-07-31T01:31:46;19.50;99.90
20446;DHT22;10382;49.140;9.234;2023-07-31T01:34:17;19.40;99.90
20446;DHT22;10382;49.140;9.234;2023-07-31T01:36:44;19.50;99.90
20446;DHT22;10382;49.140;9.234;2023-07-31T01:39:11;19.30;99.90
20446;DHT22;10382;49.140;9.234;2023-07-31T01:41:39;19.10;99.90
20446;DHT22;10382;49.140;9.234;2023-07-31T01:44:06;19.00;99.90
20446;DHT22;10382;49.140;9.234;2023-07-31T01:46:33;18.90;99.90
20446;DHT22;10382;49.140;9.234;2023-07-31T01:49:00;18.90;99.90
20446;DHT22;10382;49.140;9.234;2023-07-31T01:51:27;18.80;99.90
20446;DHT22;10382;49.140;9.234;2023-07-31T01:53:54;18.90;99.90
20446;DHT22;10382;49.140;9.234;2023-07-31T01:56:20;18.90;99.90
20446;DHT22;10382;49.140;9.234;2023-07-31T01:58:49;19.00;99.90
20446;DHT22;10382;49.140;9.234;2023-07-31T02:01:15;19.00;99.90
20446;DHT22;10382;49.140;9.234;2023-07-31T02:03:42;19.00;99.90
20446;DHT22;10382;49.140;9.234;2023-07-31T02:06:09;19.00;99.90
20446;DHT22;10382;49.140;9.234;2023-07-31T02:08:36;19.00;99.90
20446;DHT22;10382;49.140;9.234;2023-07-31T02:11:03;19.00;99.90
20446;DHT22;10382;49.140;9.234;2023-07-31T02:13:30;18.90;99.90
20446;DHT22;10382;49.140;9.234;2023-07-31T02:15:58;18.90;99.90
20446;DHT22;10382;49.140;9.234;2023-07-31T02:18:25;18.90;99.90
20446;DHT22;10382;49.140;9.234;2023-07-31T02:20:52;18.80;99.90
20446;DHT22;10382;49.140;9.234;2023-07-31T02:23:19;18.80;99.90
20446;DHT22;10382;49.140;9.234;2023-07-31T02:25:46;18.80;99.90
20446;DHT22;10382;49.140;9.234;2023-07-31T02:28:13;18.70;99.90
20446;DHT22;10382;49.140;9.234;2023-07-31T02:30:44;18.80;99.90
20446;DHT22;10382;49.140;9.234;2023-07-31T02:33:13;18.80;99.90
20446;DHT22;10382;49.140;9.234;2023-07-31T02:35:40;18.90;99.90
20446;DHT22;10382;49.140;9.234;2023-07-31T02:38:07;18.80;99.90
20446;DHT22;10382;49.140;9.234;2023-07-31T02:40:34;18.80;99.90
20446;DHT22;10382;49.140;9.234;2023-07-31T02:43:01;18.80;99.90
20446;DHT22;10382;49.140;9.234;2023-07-31T02:45:27;18.70;99.90
20446;DHT22;10382;49.140;9.234;2023-07-31T02:47:54;18.80;99.90
20446;DHT22;10382;49.140;9.234;2023-07-31T02:50:22;18.80;99.90
20446;DHT22;10382;49.140;9.234;2023-07-31T02:52:49;18.80;99.90
20446;DHT22;10382;49.140;9.234;2023-07-31T02:55:16;18.90;99.90
20446;DHT22;10382;49.140;9.234;2023-07-31T02:57:43;18.80;99.90
20446;DHT22;10382;49.140;9.234;2023-07-31T03:00:10;18.80;99.90
20446;DHT22;10382;49.140;9.234;2023-07-31T03:02:37;18.80;99.90
20446;DHT22;10382;49.140;9.234;2023-07-31T03:05:04;18.70;99.90
20446;DHT22;10382;49.140;9.234;2023-07-31T03:07:32;18.70;99.90
20446;DHT22;10382;49.140;9.234;2023-07-31T03:09:59;18.70;99.90
20446;DHT22;10382;49.140;9.234;2023-07-31T03:12:26;18.70;99.90
20446;DHT22;10382;49.140;9.234;2023-07-31T03:14:53;18.70;99.90
20446;DHT22;10382;49.140;9.234;2023-07-31T03:17:20;18.80;99.90
20446;DHT22;10382;49.140;9.234;2023-07-31T03:19:47;18.80;99.90
20446;DHT22;10382;49.140;9.234;2023-07-31T03:22:13;18.80;99.90
20446;DHT22;10382;49.140;9.234;2023-07-31T03:24:42;18.80;99.90
20446;DHT22;10382;49.140;9.234;2023-07-31T03:27:08;18.70;99.90
20446;DHT22;10382;49.140;9.234;2023-07-31T03:29:35;18.80;99.90
20446;DHT22;10382;49.140;9.234;2023-07-31T03:32:02;18.80;99.90
20446;DHT22;10382;49.140;9.234;2023-07-31T03:34:29;18.80;99.90
20446;DHT22;10382;49.140;9.234;2023-07-31T03:36:57;18.80;99.90
20446;DHT22;10382;49.140;9.234;2023-07-31T03:39:24;18.70;99.90
20446;DHT22;10382;49.140;9.234;2023-07-31T03:41:52;18.70;99.90
20446;DHT22;10382;49.140;9.234;2023-07-31T03:44:19;18.70;99.90
20446;DHT22;10382;49.140;9.234;2023-07-31T03:46:46;18.60;99.90
20446;DHT22;10382;49.140;9.234;2023-07-31T03:49:12;18.70;99.90
20446;DHT22;10382;49.140;9.234;2023-07-31T03:51:39;18.70;99.90
20446;DHT22;10382;49.140;9.234;2023-07-31T03:54:07;18.70;99.90
20446;DHT22;10382;49.140;9.234;2023-07-31T03:56:34;18.60;99.90
20446;DHT22;10382;49.140;9.234;2023-07-31T03:59:02;18.60;99.90
20446;DHT22;10382;49.140;9.234;2023-07-31T04:01:29;18.50;99.90
20446;DHT22;10382;49.140;9.234;2023-07-31T04:03:56;18.50;99.90
20446;DHT22;10382;49.140;9.234;2023-07-31T04:06:23;18.50;99.90
20446;DHT22;10382;49.140;9.234;2023-07-31T04:08:49;18.50;99.90
20446;DHT22;10382;49.140;9.234;2023-07-31T04:11:16;18.50;99.90
20446;DHT22;10382;49.140;9.234;2023-07-31T04:13:43;18.50;99.90
20446;DHT22;10382;49.140;9.234;2023-07-31T04:16:11;18.50;99.90
20446;DHT22;10382;49.140;9.234;2023-07-31T04:18:38;18.50;99.90
20446;DHT22;10382;49.140;9.234;2023-07-31T04:21:05;18.60;99.90
20446;DHT22;10382;49.140;9.234;2023-07-31T04:23:32;18.60;99.90
20446;DHT22;10382;49.140;9.234;2023-07-31T04:25:59;18.60;99.90
20446;DHT22;10382;49.140;9.234;2023-07-31T04:28:25;18.70;99.90
20446;DHT22;10382;49.140;9.234;2023-07-31T04:30:52;18.70;99.90
20446;DHT22;10382;49.140;9.234;2023-07-31T04:33:20;18.80;99.90
20446;DHT22;10382;49.140;9.234;2023-07-31T04:35:50;18.80;99.90
20446;DHT22;10382;49.140;9.234;2023-07-31T04:38:18;18.90;99.90
20446;DHT22;10382;49.140;9.234;2023-07-31T04:40:45;18.80;99.90
20446;DHT22;10382;49.140;9.234;2023-07-31T04:43:12;18.80;99.90
20446;DHT22;10382;49.140;9.234;2023-07-31T04:45:39;18.80;99.90
20446;DHT22;10382;49.140;9.234;2023-07-31T04:48:06;18.80;99.90
20446;DHT22;10382;49.140;9.234;2023-07-31T04:50:34;18.90;99.90
20446;DHT22;10382;49.140;9.234;2023-07-31T04:53:01;18.90;99.90
20446;DHT22;10382;49.140;9.234;2023-07-31T04:55:27;18.90;99.90
20446;DHT22;10382;49.140;9.234;2023-07-31T04:57:54;18.90;99.90
20446;DHT22;10382;49.140;9.234;2023-07-31T05:00:21;19.00;99.90
20446;DHT22;10382;49.140;9.234;2023-07-31T05:02:48;18.80;99.90
20446;DHT22;10382;49.140;9.234;2023-07-31T05:05:15;18.80;99.90
20446;DHT22;10382;49.140;9.234;2023-07-31T05:07:43;18.80;99.90
20446;DHT22;10382;49.140;9.234;2023-07-31T05:10:10;18.80;99.90
20446;DHT22;10382;49.140;9.234;2023-07-31T05:12:37;18.90;99.90
20446;DHT22;10382;49.140;9.234;2023-07-31T05:15:04;18.90;99.90
20446;DHT22;10382;49.140;9.234;2023-07-31T05:17:31;18.90;99.90
20446;DHT22;10382;49.140;9.234;2023-07-31T05:19:58;18.80;99.90
20446;DHT22;10382;49.140;9.234;2023-07-31T05:22:25;18.80;99.90
20446;DHT22;10382;49.140;9.234;2023-07-31T05:24:53;18.80;99.90
20446;DHT22;10382;49.140;9.234;2023-07-31T05:27:20;18.90;99.90
20446;DHT22;10382;49.140;9.234;2023-07-31T05:29:47;18.90;99.90
20446;DHT22;10382;49.140;9.234;2023-07-31T05:32:14;19.10;99.90
20446;DHT22;10382;49.140;9.234;2023-07-31T05:34:41;19.30;99.90
20446;DHT22;10382;49.140;9.234;2023-07-31T05:37:09;19.30;99.90
20446;DHT22;10382;49.140;9.234;2023-07-31T05:39:36;19.20;99.90
20446;DHT22;10382;49.140;9.234;2023-07-31T05:42:05;19.10;99.90
20446;DHT22;10382;49.140;9.234;2023-07-31T05:44:32;19.10;99.90
20446;DHT22;10382;49.140;9.234;2023-07-31T05:46:59;19.10;99.90
20446;DHT22;10382;49.140;9.234;2023-07-31T05:49:26;19.10;99.90
20446;DHT22;10382;49.140;9.234;2023-07-31T05:51:52;19.00;99.90
20446;DHT22;10382;49.140;9.234;2023-07-31T05:54:19;19.00;99.90
20446;DHT22;10382;49.140;9.234;2023-07-31T05:56:46;19.10;99.90
20446;DHT22;10382;49.140;9.234;2023-07-31T05:59:15;19.20;99.90
20446;DHT22;10382;49.140;9.234;2023-07-31T06:01:42;19.20;99.90
20446;DHT22;10382;49.140;9.234;2023-07-31T06:04:09;19.30;99.90
20446;DHT22;10382;49.140;9.234;2023-07-31T06:06:36;19.20;99.90
20446;DHT22;10382;49.140;9.234;2023-07-31T06:09:03;19.30;99.90
20446;DHT22;10382;49.140;9.234;2023-07-31T06:11:30;19.30;99.90
20446;DHT22;10382;49.140;9.234;2023-07-31T06:13:57;19.40;99.90
20446;DHT22;10382;49.140;9.234;2023-07-31T06:16:25;19.50;99.90
20446;DHT22;10382;49.140;9.234;2023-07-31T06:18:52;19.70;99.90
20446;DHT22;10382;49.140;9.234;2023-07-31T06:21:19;19.80;99.90
20446;DHT22;10382;49.140;9.234;2023-07-31T06:23:46;19.80;99.90
20446;DHT22;10382;49.140;9.234;2023-07-31T06:26:13;19.70;99.90
20446;DHT22;10382;49.140;9.234;2023-07-31T06:28:40;19.70;99.90
20446;DHT22;10382;49.140;9.234;2023-07-31T06:31:07;19.90;99.90
20446;DHT22;10382;49.140;9.234;2023-07-31T06:33:35;20.10;99.90
20446;DHT22;10382;49.140;9.234;2023-07-31T06:36:02;20.50;99.90
20446;DHT22;10382;49.140;9.234;2023-07-31T06:38:29;21.00;99.90
20446;DHT22;10382;49.140;9.234;2023-07-31T06:40:56;21.30;99.90
20446;DHT22;10382;49.140;9.234;2023-07-31T06:43:23;21.30;99.90
20446;DHT22;10382;49.140;9.234;2023-07-31T06:45:49;21.20;99.90
20446;DHT22;10382;49.140;9.234;2023-07-31T06:48:16;21.10;99.90
20446;DHT22;10382;49.140;9.234;2023-07-31T06:50:45;20.80;99.90
20446;DHT22;10382;49.140;9.234;2023-07-31T06:53:11;20.70;99.90
20446;DHT22;10382;49.140;9.234;2023-07-31T06:55:38;20.70;99.90
20446;DHT22;10382;49.140;9.234;2023-07-31T06:58:05;20.80;99.90
20446;DHT22;10382;49.140;9.234;2023-07-31T07:00:32;21.00;99.90
20446;DHT22;10382;49.140;9.234;2023-07-31T07:02:59;21.10;99.90
20446;DHT22;10382;49.140;9.234;2023-07-31T07:05:25;21.10;99.90
20446;DHT22;10382;49.140;9.234;2023-07-31T07:07:54;21.00;99.90
20446;DHT22;10382;49.140;9.234;2023-07-31T07:10:21;21.00;99.90
20446;DHT22;10382;49.140;9.234;2023-07-31T07:12:48;21.10;99.90
20446;DHT22;10382;49.140;9.234;2023-07-31T07:15:15;21.20;99.90
20446;DHT22;10382;49.140;9.234;2023-07-31T07:17:42;21.20;99.90
20446;DHT22;10382;49.140;9.234;2023-07-31T07:20:09;21.20;99.90
20446;DHT22;10382;49.140;9.234;2023-07-31T07:22:36;21.30;99.90
20446;DHT22;10382;49.140;9.234;2023-07-31T07:25:05;21.30;99.90
20446;DHT22;10382;49.140;9.234;2023-07-31T07:27:32;21.20;99.90
20446;DHT22;10382;49.140;9.234;2023-07-31T07:29:59;21.00;99.90
20446;DHT22;10382;49.140;9.234;2023-07-31T07:32:26;21.10;99.90
20446;DHT22;10382;49.140;9.234;2023-07-31T07:34:53;21.20;99.90
20446;DHT22;10382;49.140;9.234;2023-07-31T07:37:20;21.40;99.90
20446;DHT22;10382;49.140;9.234;2023-07-31T07:39:47;21.50;99.90
20446;DHT22;10382;49.140;9.234;2023-07-31T07:42:15;21.60;99.90
20446;DHT22;10382;49.140;9.234;2023-07-31T07:44:42;21.80;99.90
20446;DHT22;10382;49.140;9.234;2023-07-31T07:47:09;22.10;99.90
20446;DHT22;10382;49.140;9.234;2023-07-31T07:49:36;22.50;99.90
20446;DHT22;10382;49.140;9.234;2023-07-31T07:52:03;22.50;99.90
20446;DHT22;10382;49.140;9.234;2023-07-31T07:54:30;22.50;99.90
20446;DHT22;10382;49.140;9.234;2023-07-31T07:56:57;22.60;99.90
20446;DHT22;10382;49.140;9.234;2023-07-31T07:59:25;23.00;99.90
20446;DHT22;10382;49.140;9.234;2023-07-31T08:01:52;23.20;99.90
20446;DHT22;10382;49.140;9.234;2023-07-31T08:04:20;23.20;99.90
20446;DHT22;10382;49.140;9.234;2023-07-31T08:06:46;23.20;99.90
20446;DHT22;10382;49.140;9.234;2023-07-31T08:09:13;23.10;99.90
20446;DHT22;10382;49.140;9.234;2023-07-31T08:11:40;23.30;99.90
20446;DHT22;10382;49.140;9.234;2023-07-31T08:14:07;23.30;99.90
20446;DHT22;10382;49.140;9.234;2023-07-31T08:16:35;23.30;99.90
20446;DHT22;10382;49.140;9.234;2023-07-31T08:19:02;23.30;99.90
20446;DHT22;10382;49.140;9.234;2023-07-31T08:21:29;23.10;99.90
20446;DHT22;10382;49.140;9.234;2023-07-31T08:23:56;22.90;99.90
20446;DHT22;10382;49.140;9.234;2023-07-31T08:26:23;23.00;99.90
20446;DHT22;10382;49.140;9.234;2023-07-31T08:28:50;23.10;99.90
20446;DHT22;10382;49.140;9.234;2023-07-31T08:31:16;23.20;99.90
20446;DHT22;10382;49.140;9.234;2023-07-31T08:33:45;23.20;99.90
20446;DHT22;10382;49.140;9.234;2023-07-31T08:36:12;23.10;99.90
20446;DHT22;10382;49.140;9.234;2023-07-31T08:38:38;22.80;99.90
20446;DHT22;10382;49.140;9.234;2023-07-31T08:41:05;22.80;99.90
20446;DHT22;10382;49.140;9.234;2023-07-31T08:43:32;22.70;99.90
20446;DHT22;10382;49.140;9.234;2023-07-31T08:46:00;22.80;99.90
20446;DHT22;10382;49.140;9.234;2023-07-31T08:48:28;22.90;99.90
20446;DHT22;10382;49.140;9.234;2023-07-31T08:50:57;22.90;99.90
20446;DHT22;10382;49.140;9.234;2023-07-31T08:53:24;22.90;99.90
20446;DHT22;10382;49.140;9.234;2023-07-31T08:55:53;23.00;99.90
20446;DHT22;10382;49.140;9.234;2023-07-31T08:58:20;23.00;99.90
20446;DHT22;10382;49.140;9.234;2023-07-31T09:00:47;23.20;99.90
20446;DHT22;10382;49.140;9.234;2023-07-31T09:03:16;23.30;99.90
20446;DHT22;10382;49.140;9.234;2023-07-31T09:05:44;23.40;99.90
20446;DHT22;10382;49.140;9.234;2023-07-31T09:08:14;23.50;99.90
20446;DHT22;10382;49.140;9.234;2023-07-31T09:10:44;23.70;99.90
20446;DHT22;10382;49.140;9.234;2023-07-31T09:13:12;23.90;99.90
20446;DHT22;10382;49.140;9.234;2023-07-31T09:15:39;24.00;99.90
20446;DHT22;10382;49.140;9.234;2023-07-31T09:18:07;24.20;99.90
20446;DHT22;10382;49.140;9.234;2023-07-31T09:20:35;24.30;99.90
20446;DHT22;10382;49.140;9.234;2023-07-31T09:23:07;24.30;99.90
20446;DHT22;10382;49.140;9.234;2023-07-31T09:25:37;24.20;99.90
20446;DHT22;10382;49.140;9.234;2023-07-31T09:28:05;24.20;99.90
20446;DHT22;10382;49.140;9.234;2023-07-31T09:30:45;24.30;99.90
20446;DHT22;10382;49.140;9.234;2023-07-31T09:33:12;24.50;99.90
20446;DHT22;10382;49.140;9.234;2023-07-31T09:35:39;24.40;99.90
20446;DHT22;10382;49.140;9.234;2023-07-31T09:38:08;24.30;99.90
20446;DHT22;10382;49.140;9.234;2023-07-31T09:40:38;24.10;99.90
20446;DHT22;10382;49.140;9.234;2023-07-31T09:43:12;24.30;99.90
20446;DHT22;10382;49.140;9.234;2023-07-31T09:45:41;24.20;99.90
20446;DHT22;10382;49.140;9.234;2023-07-31T09:48:09;24.00;99.90
20446;DHT22;10382;49.140;9.234;2023-07-31T09:50:37;23.80;99.90
20446;DHT22;10382;49.140;9.234;2023-07-31T09:53:05;23.70;99.90
20446;DHT22;10382;49.140;9.234;2023-07-31T09:55:32;23.70;99.90
20446;DHT22;10382;49.140;9.234;2023-07-31T09:58:04;23.80;99.90
20446;DHT22;10382;49.140;9.234;2023-07-31T10:00:31;24.00;99.90
20446;DHT22;10382;49.140;9.234;2023-07-31T10:02:59;24.30;99.90
20446;DHT22;10382;49.140;9.234;2023-07-31T10:05:30;24.20;99.90
20446;DHT22;10382;49.140;9.234;2023-07-31T10:07:58;24.10;99.90
20446;DHT22;10382;49.140;9.234;2023-07-31T10:10:25;24.20;99.90
20446;DHT22;10382;49.140;9.234;2023-07-31T10:12:53;24.50;99.90
20446;DHT22;10382;49.140;9.234;2023-07-31T10:15:22;24.50;99.90
20446;DHT22;10382;49.140;9.234;2023-07-31T10:17:49;24.30;99.90
20446;DHT22;10382;49.140;9.234;2023-07-31T10:20:17;24.30;99.90
20446;DHT22;10382;49.140;9.234;2023-07-31T10:22:44;24.40;99.90
20446;DHT22;10382;49.140;9.234;2023-07-31T10:25:12;24.50;99.90
20446;DHT22;10382;49.140;9.234;2023-07-31T10:27:39;24.90;99.90
20446;DHT22;10382;49.140;9.234;2023-07-31T10:30:09;24.90;99.90
20446;DHT22;10382;49.140;9.234;2023-07-31T10:32:40;24.80;99.90
20446;DHT22;10382;49.140;9.234;2023-07-31T10:35:08;24.40;99.90
20446;DHT22;10382;49.140;9.234;2023-07-31T10:37:37;24.10;99.90
20446;DHT22;10382;49.140;9.234;2023-07-31T10:40:06;24.30;99.90
20446;DHT22;10382;49.140;9.234;2023-07-31T10:42:37;24.40;99.90
20446;DHT22;10382;49.140;9.234;2023-07-31T10:45:06;24.50;99.90
20446;DHT22;10382;49.140;9.234;2023-07-31T10:47:42;24.60;99.90
20446;DHT22;10382;49.140;9.234;2023-07-31T10:50:17;24.60;99.90
20446;DHT22;10382;49.140;9.234;2023-07-31T10:52:49;24.60;99.90
20446;DHT22;10382;49.140;9.234;2023-07-31T10:55:24;24.70;99.90
20446;DHT22;10382;49.140;9.234;2023-07-31T10:57:51;24.70;99.90
20446;DHT22;10382;49.140;9.234;2023-07-31T11:00:20;24.60;99.90
20446;DHT22;10382;49.140;9.234;2023-07-31T11:03:02;24.60;99.90
20446;DHT22;10382;49.140;9.234;2023-07-31T11:05:43;24.60;99.90
20446;DHT22;10382;49.140;9.234;2023-07-31T11:08:11;24.60;99.90
20446;DHT22;10382;49.140;9.234;2023-07-31T11:10:38;24.70;99.90
20446;DHT22;10382;49.140;9.234;2023-07-31T11:13:06;24.80;99.90
20446;DHT22;10382;49.140;9.234;2023-07-31T11:15:33;24.90;99.90
20446;DHT22;10382;49.140;9.234;2023-07-31T11:18:02;24.70;99.90
20446;DHT22;10382;49.140;9.234;2023-07-31T11:20:31;24.40;99.90
20446;DHT22;10382;49.140;9.234;2023-07-31T11:23:00;24.30;99.90
20446;DHT22;10382;49.140;9.234;2023-07-31T11:25:28;24.20;99.90
20446;DHT22;10382;49.140;9.234;2023-07-31T11:27:55;24.10;99.90
20446;DHT22;10382;49.140;9.234;2023-07-31T11:30:22;24.20;99.90
20446;DHT22;10382;49.140;9.234;2023-07-31T11:32:49;24.30;99.90
20446;DHT22;10382;49.140;9.234;2023-07-31T11:35:18;24.50;99.90
20446;DHT22;10382;49.140;9.234;2023-07-31T11:37:45;24.60;99.90
20446;DHT22;10382;49.140;9.234;2023-07-31T11:40:12;24.70;99.90
20446;DHT22;10382;49.140;9.234;2023-07-31T11:42:39;24.90;99.90
20446;DHT22;10382;49.140;9.234;2023-07-31T11:45:07;25.20;99.90
20446;DHT22;10382;49.140;9.234;2023-07-31T11:47:35;25.20;99.90
20446;DHT22;10382;49.140;9.234;2023-07-31T11:50:06;25.20;99.90
20446;DHT22;10382;49.140;9.234;2023-07-31T11:52:37;24.80;99.90
20446;DHT22;10382;49.140;9.234;2023-07-31T11:55:07;24.50;99.90
20446;DHT22;10382;49.140;9.234;2023-07-31T11:57:37;24.40;99.90
20446;DHT22;10382;49.140;9.234;2023-07-31T12:00:06;24.30;99.90
20446;DHT22;10382;49.140;9.234;2023-07-31T12:02:35;24.50;99.90
20446;DHT22;10382;49.140;9.234;2023-07-31T12:05:02;24.90;99.90
20446;DHT22;10382;49.140;9.234;2023-07-31T12:07:45;25.40;99.90
20446;DHT22;10382;49.140;9.234;2023-07-31T12:10:23;25.70;99.90
20446;DHT22;10382;49.140;9.234;2023-07-31T12:12:59;25.70;99.90
20446;DHT22;10382;49.140;9.234;2023-07-31T12:15:31;25.50;99.90
20446;DHT22;10382;49.140;9.234;2023-07-31T12:17:58;25.40;99.90
20446;DHT22;10382;49.140;9.234;2023-07-31T12:20:26;25.50;99.90
20446;DHT22;10382;49.140;9.234;2023-07-31T12:22:56;25.60;99.90
20446;DHT22;10382;49.140;9.234;2023-07-31T12:25:28;25.10;99.90
20446;DHT22;10382;49.140;9.234;2023-07-31T12:27:54;24.50;99.90
20446;DHT22;10382;49.140;9.234;2023-07-31T12:30:28;24.30;99.90
20446;DHT22;10382;49.140;9.234;2023-07-31T12:32:55;24.10;99.90
20446;DHT22;10382;49.140;9.234;2023-07-31T12:35:22;24.10;99.90
20446;DHT22;10382;49.140;9.234;2023-07-31T12:37:49;24.10;99.90
20446;DHT22;10382;49.140;9.234;2023-07-31T12:40:17;24.00;99.90
20446;DHT22;10382;49.140;9.234;2023-07-31T12:42:44;24.00;99.90
20446;DHT22;10382;49.140;9.234;2023-07-31T12:45:11;24.10;99.90
20446;DHT22;10382;49.140;9.234;2023-07-31T12:47:37;24.20;99.90
20446;DHT22;10382;49.140;9.234;2023-07-31T12:50:05;24.10;99.90
20446;DHT22;10382;49.140;9.234;2023-07-31T12:52:32;24.10;99.90
20446;DHT22;10382;49.140;9.234;2023-07-31T12:54:59;24.20;99.90
20446;DHT22;10382;49.140;9.234;2023-07-31T12:57:27;24.10;99.90
20446;DHT22;10382;49.140;9.234;2023-07-31T12:59:54;24.10;99.90
20446;DHT22;10382;49.140;9.234;2023-07-31T13:02:21;24.10;99.90
20446;DHT22;10382;49.140;9.234;2023-07-31T13:04:49;24.00;99.90
20446;DHT22;10382;49.140;9.234;2023-07-31T13:07:16;24.00;99.90
20446;DHT22;10382;49.140;9.234;2023-07-31T13:09:43;23.90;99.90
20446;DHT22;10382;49.140;9.234;2023-07-31T13:12:10;23.80;99.90
20446;DHT22;10382;49.140;9.234;2023-07-31T13:14:38;24.00;99.90
20446;DHT22;10382;49.140;9.234;2023-07-31T13:17:05;24.00;99.90
20446;DHT22;10382;49.140;9.234;2023-07-31T13:19:32;24.00;99.90
20446;DHT22;10382;49.140;9.234;2023-07-31T13:21:58;24.00;99.90
20446;DHT22;10382;49.140;9.234;2023-07-31T13:24:25;24.10;99.90
20446;DHT22;10382;49.140;9.234;2023-07-31T13:26:52;24.00;99.90
20446;DHT22;10382;49.140;9.234;2023-07-31T13:29:19;24.00;99.90
20446;DHT22;10382;49.140;9.234;2023-07-31T13:31:48;24.20;99.90
20446;DHT22;10382;49.140;9.234;2023-07-31T13:34:15;24.40;99.90
20446;DHT22;10382;49.140;9.234;2023-07-31T13:36:42;24.50;99.90
20446;DHT22;10382;49.140;9.234;2023-07-31T13:39:09;24.40;99.90
20446;DHT22;10382;49.140;9.234;2023-07-31T13:41:36;24.30;99.90
20446;DHT22;10382;49.140;9.234;2023-07-31T13:44:03;24.30;99.90
20446;DHT22;10382;49.140;9.234;2023-07-31T13:46:30;24.30;99.90
20446;DHT22;10382;49.140;9.234;2023-07-31T13:48:59;24.40;99.90
20446;DHT22;10382;49.140;9.234;2023-07-31T13:51:27;24.40;99.90
20446;DHT22;10382;49.140;9.234;2023-07-31T13:53:54;24.50;99.90
20446;DHT22;10382;49.140;9.234;2023-07-31T13:56:21;24.70;99.90
20446;DHT22;10382;49.140;9.234;2023-07-31T13:58:48;24.90;99.90
20446;DHT22;10382;49.140;9.234;2023-07-31T14:01:14;25.20;99.90
20446;DHT22;10382;49.140;9.234;2023-07-31T14:03:41;25.60;99.90
20446;DHT22;10382;49.140;9.234;2023-07-31T14:06:10;25.80;99.90
20446;DHT22;10382;49.140;9.234;2023-07-31T14:08:37;25.60;99.90
20446;DHT22;10382;49.140;9.234;2023-07-31T14:11:03;25.30;99.90
20446;DHT22;10382;49.140;9.234;2023-07-31T14:13:30;25.10;99.90
20446;DHT22;10382;49.140;9.234;2023-07-31T14:15:57;25.00;99.90
20446;DHT22;10382;49.140;9.234;2023-07-31T14:18:24;24.70;99.90
20446;DHT22;10382;49.140;9.234;2023-07-31T14:20:51;24.50;99.90
20446;DHT22;10382;49.140;9.234;2023-07-31T14:23:19;24.40;99.90
20446;DHT22;10382;49.140;9.234;2023-07-31T14:25:46;24.40;99.90
20446;DHT22;10382;49.140;9.234;2023-07-31T14:28:13;24.50;99.90
20446;DHT22;10382;49.140;9.234;2023-07-31T14:30:40;24.50;99.90
20446;DHT22;10382;49.140;9.234;2023-07-31T14:33:07;24.50;99.90
20446;DHT22;10382;49.140;9.234;2023-07-31T14:35:34;24.60;99.90
20446;DHT22;10382;49.140;9.234;2023-07-31T14:38:01;24.80;99.90
20446;DHT22;10382;49.140;9.234;2023-07-31T14:40:30;24.90;99.90
20446;DHT22;10382;49.140;9.234;2023-07-31T14:42:57;24.80;99.90
20446;DHT22;10382;49.140;9.234;2023-07-31T14:45:23;24.50;99.90
20446;DHT22;10382;49.140;9.234;2023-07-31T14:47:50;24.30;99.90
20446;DHT22;10382;49.140;9.234;2023-07-31T14:50:17;24.10;99.90
20446;DHT22;10382;49.140;9.234;2023-07-31T14:52:45;24.00;99.90
20446;DHT22;10382;49.140;9.234;2023-07-31T14:55:12;24.00;99.90
20446;DHT22;10382;49.140;9.234;2023-07-31T14:57:40;24.10;99.90
20446;DHT22;10382;49.140;9.234;2023-07-31T15:00:08;24.20;99.90
20446;DHT22;10382;49.140;9.234;2023-07-31T15:02:35;24.30;99.90
20446;DHT22;10382;49.140;9.234;2023-07-31T15:05:03;24.40;99.90
20446;DHT22;10382;49.140;9.234;2023-07-31T15:07:30;24.50;99.90
20446;DHT22;10382;49.140;9.234;2023-07-31T15:09:56;24.60;99.90
20446;DHT22;10382;49.140;9.234;2023-07-31T15:12:23;24.70;99.90
20446;DHT22;10382;49.140;9.234;2023-07-31T15:14:51;24.70;99.90
20446;DHT22;10382;49.140;9.234;2023-07-31T15:17:18;24.80;99.90
20446;DHT22;10382;49.140;9.234;2023-07-31T15:19:45;24.90;99.90
20446;DHT22;10382;49.140;9.234;2023-07-31T15:22:12;24.90;99.90
20446;DHT22;10382;49.140;9.234;2023-07-31T15:24:39;25.00;99.90
20446;DHT22;10382;49.140;9.234;2023-07-31T15:27:06;24.80;99.90
20446;DHT22;10382;49.140;9.234;2023-07-31T15:29:34;24.80;99.90
20446;DHT22;10382;49.140;9.234;2023-07-31T15:32:04;24.90;99.90
20446;DHT22;10382;49.140;9.234;2023-07-31T15:34:31;25.20;99.90
20446;DHT22;10382;49.140;9.234;2023-07-31T15:36:58;25.50;99.90